Time;durP1;ratioP1;P1;durP2;ratioP2;P2;SDS_P1;SDS_P2;PMS_P1;PMS_P2;Temp;Humidity;BMP_temperature;BMP_pressure;BME280_temperature;BME280_humidity;BME280_pressure;Samples;Min_cycle;Max_cycle;Signal;HPM_P1;HPM_P2
2022/12/15 00:40:07;;;;;;;17.63;10.30;;;0.80;64.00;;;;;;5114946;28;20032;-67
2022/12/15 00:42:33;;;;;;;20.83;11.03;;;0.80;64.00;;;;;;5112133;28;20062;-69
2022/12/15 00:44:58;;;;;;;20.97;11.80;;;0.80;64.70;;;;;;5113023;28;20055;-67
2022/12/15 00:47:24;;;;;;;17.10;10.17;;;0.80;64.00;;;;;;5117568;28;20053;-67
2022/12/15 01:20:13;;;;;;;23.80;10.60;;;0.80;64.40;;;;;;5097437;28;20043;-66
2022/12/15 01:22:40;;;;;;;24.60;11.53;;;0.80;64.40;;;;;;5119197;27;20351;-67
2022/12/15 01:25:07;;;;;;;19.67;11.63;;;0.70;64.40;;;;;;5129864;27;20030;-66
2022/12/15 01:27:33;;;;;;;17.13;10.27;;;0.70;64.40;;;;;;5123460;27;20024;-66
2022/12/15 01:30:01;;;;;;;19.77;10.87;;;0.70;64.40;;;;;;5114841;27;20125;-66
2022/12/15 01:32:27;;;;;;;19.00;10.87;;;0.70;64.40;;;;;;5121036;27;20149;-66
2022/12/15 01:34:53;;;;;;;18.90;10.80;;;0.70;64.40;;;;;;5099607;28;20130;-67
2022/12/15 01:37:18;;;;;;;21.67;10.37;;;0.70;64.40;;;;;;5116755;28;20035;-67
2022/12/15 01:42:29;;;;;;;19.07;10.60;;;0.70;64.40;;;;;;5113925;28;20070;-67
2022/12/15 01:45:23;;;;;;;18.10;10.63;;;0.80;64.40;;;;;;5117095;28;20100;-67
2022/12/15 01:47:51;;;;;;;22.80;10.93;;;0.80;64.40;;;;;;5104642;28;20425;-67
2022/12/15 01:50:17;;;;;;;19.60;11.13;;;0.70;64.40;;;;;;5116071;28;20502;-67
2022/12/15 01:52:43;;;;;;;18.70;10.30;;;0.70;64.40;;;;;;5114166;28;20027;-67
2022/12/15 01:55:10;;;;;;;19.30;11.13;;;0.70;64.40;;;;;;5111177;28;20081;-67
2022/12/15 01:57:36;;;;;;;17.07;10.70;;;0.70;64.40;;;;;;5097694;28;20019;-67
2022/12/15 02:00:07;;;;;;;22.57;11.63;;;0.70;64.40;;;;;;5116817;28;20057;-67
2022/12/15 02:02:35;;;;;;;15.67;9.07;;;0.70;64.40;;;;;;5114013;28;20076;-67
2022/12/15 02:05:03;;;;;;;18.90;11.10;;;0.70;64.50;;;;;;5116698;28;20073;-66
2022/12/15 02:07:28;;;;;;;19.70;10.40;;;0.60;64.50;;;;;;5115004;27;20046;-67
2022/12/15 02:09:57;;;;;;;19.70;10.57;;;0.70;64.60;;;;;;5115676;28;20511;-67
2022/12/15 02:12:44;;;;;;;20.90;11.07;;;0.70;64.50;;;;;;5114766;28;20432;-67
2022/12/15 02:15:36;;;;;;;17.30;10.40;;;0.70;64.60;;;;;;5118123;27;20040;-66
2022/12/15 02:18:01;;;;;;;34.37;10.20;;;0.70;64.50;;;;;;5098651;28;20126;-67
2022/12/15 02:20:39;;;;;;;18.27;9.80;;;0.60;64.50;;;;;;5115085;28;20138;-67
2022/12/15 02:23:17;;;;;;;17.10;9.97;;;0.60;64.60;;;;;;5114298;27;20035;-67
2022/12/15 02:26:01;;;;;;;20.03;10.33;;;0.60;64.60;;;;;;5114815;28;20028;-67
2022/12/15 02:29:01;;;;;;;20.43;10.70;;;0.60;64.60;;;;;;5115638;28;20032;-67
2022/12/15 02:31:49;;;;;;;17.57;9.77;;;0.60;64.60;;;;;;5114498;28;20434;-67
2022/12/15 02:34:15;;;;;;;17.37;9.43;;;0.60;64.60;;;;;;5115118;28;20032;-67
2022/12/15 02:36:45;;;;;;;17.70;10.63;;;0.60;64.60;;;;;;5114753;28;20085;-67
2022/12/15 02:39:11;;;;;;;18.63;10.13;;;0.60;64.60;;;;;;5120190;27;20331;-67
2022/12/15 02:41:42;;;;;;;18.83;9.87;;;0.60;64.60;;;;;;5119912;27;20452;-67
2022/12/15 02:44:51;;;;;;;18.30;9.77;;;0.60;64.60;;;;;;5115375;27;20047;-67
2022/12/15 02:47:35;;;;;;;20.27;10.90;;;0.60;64.60;;;;;;5097555;28;20181;-67
2022/12/15 02:50:25;;;;;;;17.73;10.07;;;0.50;64.60;;;;;;5113646;28;20035;-67
2022/12/15 02:53:36;;;;;;;16.90;9.93;;;0.60;64.70;;;;;;5113123;28;20039;-67
2022/12/15 02:56:16;;;;;;;19.23;10.90;;;0.50;64.60;;;;;;5115245;27;20039;-67
2022/12/15 02:58:48;;;;;;;20.00;9.83;;;0.50;64.70;;;;;;5115720;28;20028;-67
2022/12/15 03:01:19;;;;;;;20.83;11.85;;;0.50;64.70;;;;;;5112986;28;20027;-67
2022/12/15 03:03:47;;;;;;;17.52;9.68;;;0.50;64.80;;;;;;5114861;28;20160;-67
2022/12/15 03:06:14;;;;;;;17.10;9.63;;;0.50;64.80;;;;;;5114515;28;20031;-67
2022/12/15 03:08:39;;;;;;;19.97;10.50;;;0.40;64.70;;;;;;5113629;28;20027;-67
2022/12/15 03:11:05;;;;;;;17.80;9.73;;;0.40;64.80;;;;;;5108484;28;20020;-67
2022/12/15 03:13:31;;;;;;;16.63;9.17;;;0.40;64.80;;;;;;5115624;28;20024;-67
2022/12/15 03:15:59;;;;;;;23.13;11.10;;;0.50;64.90;;;;;;5114731;28;20024;-67
2022/12/15 03:18:24;;;;;;;21.33;10.50;;;0.50;64.90;;;;;;5114697;28;20402;-67
2022/12/15 03:20:50;;;;;;;19.07;9.40;;;0.50;64.90;;;;;;5114041;28;20036;-67
2022/12/15 03:23:16;;;;;;;18.73;10.33;;;0.50;64.80;;;;;;5115168;27;20084;-67
2022/12/15 03:25:44;;;;;;;17.23;9.53;;;0.50;64.80;;;;;;5114269;27;20018;-67
2022/12/15 03:28:09;;;;;;;15.90;9.87;;;0.50;64.80;;;;;;5115147;28;20046;-67
2022/12/15 03:30:35;;;;;;;18.70;10.93;;;0.50;64.80;;;;;;5095520;28;20432;-68
2022/12/15 03:33:01;;;;;;;17.57;10.23;;;0.50;64.70;;;;;;5113242;28;20433;-67
2022/12/15 03:35:26;;;;;;;20.70;9.73;;;0.50;64.70;;;;;;5114453;28;20040;-67
2022/12/15 03:37:52;;;;;;;17.30;9.67;;;0.40;64.70;;;;;;5114608;28;20030;-67
2022/12/15 03:40:18;;;;;;;16.47;9.53;;;0.40;64.70;;;;;;5111821;28;20042;-67
2022/12/15 03:42:47;;;;;;;17.83;9.30;;;0.40;64.70;;;;;;5113551;28;20031;-67
2022/12/15 03:45:13;;;;;;;16.77;9.33;;;0.40;64.70;;;;;;5115041;28;20106;-67
2022/12/15 03:47:42;;;;;;;15.67;9.37;;;0.40;65.30;;;;;;5113581;28;20146;-67
2022/12/15 03:50:09;;;;;;;18.93;10.60;;;0.40;64.70;;;;;;5114146;28;20020;-67
2022/12/15 03:52:35;;;;;;;17.73;10.73;;;0.50;64.70;;;;;;5113702;28;21335;-67
2022/12/15 03:55:01;;;;;;;16.03;9.10;;;0.40;64.60;;;;;;5114895;28;20424;-67
2022/12/15 03:57:26;;;;;;;19.47;10.37;;;0.40;64.60;;;;;;5115312;27;20380;-67
2022/12/15 03:59:52;;;;;;;17.23;9.23;;;0.40;64.60;;;;;;5113545;28;20028;-67
2022/12/15 04:02:17;;;;;;;17.83;9.63;;;0.40;64.60;;;;;;5112716;28;20107;-67
2022/12/15 04:04:43;;;;;;;18.07;9.60;;;0.40;64.60;;;;;;5113105;28;20028;-67
2022/12/15 04:07:09;;;;;;;19.43;10.17;;;0.40;64.70;;;;;;5111893;28;20055;-67
2022/12/15 04:09:35;;;;;;;16.93;9.80;;;0.40;64.70;;;;;;5114363;28;20432;-67
2022/12/15 04:12:05;;;;;;;18.73;9.50;;;0.30;64.60;;;;;;5111370;28;20031;-67
2022/12/15 04:14:30;;;;;;;19.53;9.63;;;0.40;64.60;;;;;;5114304;28;20027;-67
2022/12/15 04:16:56;;;;;;;18.13;10.00;;;0.40;64.60;;;;;;5113151;28;20034;-68
2022/12/15 04:22:06;;;;;;;17.97;9.30;;;0.40;64.60;;;;;;5112863;28;20045;-67
2022/12/15 05:33:11;;;;;;;17.23;8.87;;;0.10;64.60;;;;;;5114693;28;20030;-67
2022/12/15 05:35:36;;;;;;;16.73;10.33;;;0.10;64.60;;;;;;5115647;28;20016;-67
2022/12/15 05:38:04;;;;;;;19.30;10.77;;;0.10;64.60;;;;;;5115698;28;20460;-67
2022/12/15 05:40:30;;;;;;;17.50;10.67;;;0.10;64.60;;;;;;5115549;28;20023;-67
2022/12/15 05:42:59;;;;;;;18.97;10.63;;;0.10;64.60;;;;;;5116030;28;20036;-67
2022/12/15 05:45:26;;;;;;;17.43;11.00;;;0.10;64.60;;;;;;5115097;28;20023;-67
2022/12/15 05:47:52;;;;;;;17.80;11.13;;;0.10;64.60;;;;;;5115460;28;20015;-67
2022/12/15 05:50:19;;;;;;;18.10;9.57;;;0.10;64.60;;;;;;5116659;28;20113;-67
2022/12/15 05:52:44;;;;;;;19.63;10.43;;;0.10;64.70;;;;;;5116083;28;20444;-67
2022/12/15 05:55:10;;;;;;;17.93;10.30;;;0.10;64.70;;;;;;5114887;28;20073;-67
2022/12/15 05:57:36;;;;;;;18.87;11.47;;;0.00;64.70;;;;;;5117218;28;20032;-67
2022/12/15 06:00:03;;;;;;;19.67;10.87;;;0.00;64.70;;;;;;5116457;28;20463;-67
2022/12/15 06:02:37;;;;;;;20.80;10.67;;;0.00;64.70;;;;;;5114363;28;20031;-67
2022/12/15 06:05:03;;;;;;;18.37;10.67;;;0.00;64.70;;;;;;5112692;28;20349;-67
2022/12/15 06:07:28;;;;;;;20.13;10.30;;;0.00;64.70;;;;;;5125245;27;20055;-67
2022/12/15 06:09:54;;;;;;;19.47;9.30;;;0.00;64.80;;;;;;5116231;27;20038;-67
2022/12/15 06:12:20;;;;;;;17.90;11.03;;;0.10;64.80;;;;;;5115158;28;20043;-67
2022/12/15 06:14:45;;;;;;;19.10;9.70;;;0.10;64.80;;;;;;5116715;28;20027;-66
2022/12/15 06:17:12;;;;;;;17.53;10.23;;;0.00;64.80;;;;;;5115595;28;20062;-67
2022/12/15 06:19:37;;;;;;;18.77;11.03;;;0.00;64.80;;;;;;5095803;28;20024;-67
2022/12/15 06:22:04;;;;;;;18.13;10.10;;;0.00;64.80;;;;;;5106811;28;20447;-67
2022/12/15 06:24:29;;;;;;;16.83;10.53;;;0.00;64.80;;;;;;5121202;27;20046;-67
2022/12/15 06:26:55;;;;;;;15.83;9.77;;;0.00;64.80;;;;;;5118901;27;20019;-67
2022/12/15 06:29:21;;;;;;;20.63;11.60;;;0.00;64.80;;;;;;5116106;28;20097;-67
2022/12/15 06:31:46;;;;;;;18.27;10.40;;;0.00;64.90;;;;;;5115188;28;20050;-67
2022/12/15 06:34:14;;;;;;;22.07;11.60;;;0.00;64.90;;;;;;5114815;28;20035;-66
2022/12/15 06:36:40;;;;;;;19.10;11.07;;;0.00;64.90;;;;;;5113168;28;20042;-66
2022/12/15 06:39:10;;;;;;;21.00;10.83;;;0.00;65.00;;;;;;5115547;28;20368;-67
2022/12/15 06:41:36;;;;;;;17.37;10.60;;;0.00;65.00;;;;;;5115343;28;20351;-67
2022/12/15 06:44:03;;;;;;;18.47;10.40;;;0.00;65.00;;;;;;5114941;28;20127;-67
2022/12/15 06:46:30;;;;;;;19.40;10.73;;;0.00;65.00;;;;;;5113548;28;20027;-67
2022/12/15 06:48:56;;;;;;;19.83;11.50;;;0.00;65.00;;;;;;5115500;28;20359;-67
2022/12/15 06:51:22;;;;;;;22.70;11.77;;;-0.10;65.60;;;;;;5097208;28;20102;-67
2022/12/15 06:53:49;;;;;;;22.13;11.83;;;-0.10;65.00;;;;;;5114905;28;20030;-67
2022/12/15 06:56:19;;;;;;;20.07;10.80;;;-0.10;65.10;;;;;;5114469;28;20385;-67
2022/12/15 06:58:47;;;;;;;20.07;11.13;;;-0.10;65.10;;;;;;5116306;28;20096;-67
2022/12/15 07:01:14;;;;;;;21.13;11.33;;;-0.10;65.10;;;;;;5113426;28;20470;-67
2022/12/15 07:03:40;;;;;;;21.27;12.00;;;-0.10;65.10;;;;;;5115727;28;20031;-67
2022/12/15 07:06:08;;;;;;;21.13;11.90;;;-0.10;65.10;;;;;;5114918;28;20396;-67
2022/12/15 07:08:34;;;;;;;22.90;12.57;;;-0.10;65.10;;;;;;5114733;28;20464;-67
2022/12/15 07:11:03;;;;;;;23.40;11.50;;;-0.10;65.10;;;;;;5113316;28;20015;-67
2022/12/15 07:13:29;;;;;;;19.83;12.17;;;-0.10;65.10;;;;;;5124803;27;20031;-67
2022/12/15 07:15:58;;;;;;;22.67;11.77;;;-0.10;65.20;;;;;;5123368;27;20023;-67
2022/12/15 07:18:24;;;;;;;21.73;12.27;;;-0.10;65.20;;;;;;5113521;28;20116;-67
2022/12/15 07:20:50;;;;;;;20.03;12.07;;;-0.10;65.20;;;;;;5115460;28;20042;-67
2022/12/15 07:23:16;;;;;;;18.93;11.00;;;-0.10;65.20;;;;;;5114401;28;20483;-66
2022/12/15 07:25:42;;;;;;;19.97;12.07;;;-0.10;65.30;;;;;;5115901;27;20095;-66
2022/12/15 07:28:08;;;;;;;20.43;12.03;;;-0.10;65.20;;;;;;5117275;27;20376;-65
2022/12/15 07:30:34;;;;;;;21.70;12.27;;;-0.10;65.20;;;;;;5115595;28;20444;-66
2022/12/15 07:33:00;;;;;;;22.27;11.57;;;-0.10;65.10;;;;;;5113789;28;20031;-66
2022/12/15 07:35:26;;;;;;;22.73;13.07;;;-0.10;65.20;;;;;;5115539;28;20092;-66
2022/12/15 07:37:52;;;;;;;22.33;12.17;;;-0.10;65.20;;;;;;5113632;28;20031;-67
2022/12/15 07:40:18;;;;;;;22.70;12.33;;;-0.10;65.20;;;;;;5112193;28;20038;-67
2022/12/15 07:42:43;;;;;;;21.30;13.30;;;-0.10;65.30;;;;;;5113621;28;20053;-67
2022/12/15 07:45:09;;;;;;;21.20;11.80;;;-0.10;65.30;;;;;;5113949;28;20084;-66
2022/12/15 07:47:35;;;;;;;19.50;11.47;;;-0.10;65.30;;;;;;5114312;28;20100;-67
2022/12/15 07:50:01;;;;;;;23.63;12.73;;;-0.10;65.30;;;;;;5096529;28;20043;-66
2022/12/15 07:52:27;;;;;;;22.37;12.17;;;-0.10;65.30;;;;;;5114846;28;20031;-67
2022/12/15 07:54:53;;;;;;;21.60;12.73;;;-0.10;65.30;;;;;;5114000;28;20448;-68
2022/12/15 07:57:18;;;;;;;22.10;12.40;;;-0.10;65.40;;;;;;5113158;28;20027;-67
2022/12/15 07:59:44;;;;;;;19.87;12.30;;;-0.10;65.30;;;;;;5114159;28;20020;-66
2022/12/15 08:02:11;;;;;;;22.60;12.73;;;-0.10;65.40;;;;;;5114004;28;20515;-68
2022/12/15 08:04:37;;;;;;;22.43;12.90;;;-0.10;65.40;;;;;;5114360;28;20024;-67
2022/12/15 08:07:03;;;;;;;19.37;12.37;;;-0.10;65.40;;;;;;5114553;28;20436;-67
2022/12/15 08:09:30;;;;;;;24.67;14.07;;;-0.10;65.50;;;;;;5113389;28;20118;-67
2022/12/15 08:11:56;;;;;;;24.40;13.87;;;-0.10;65.50;;;;;;5113606;28;20094;-67
2022/12/15 08:14:22;;;;;;;27.17;15.07;;;0.00;65.50;;;;;;5116893;28;20024;-67
2022/12/15 08:16:48;;;;;;;30.20;16.40;;;0.00;65.50;;;;;;5114553;28;20474;-67
2022/12/15 08:19:15;;;;;;;33.20;18.03;;;0.00;65.50;;;;;;5113642;28;20043;-67
2022/12/15 08:21:42;;;;;;;29.43;16.23;;;0.00;65.50;;;;;;5112494;28;20023;-67
2022/12/15 08:24:09;;;;;;;30.37;16.20;;;0.10;65.50;;;;;;5113406;28;20038;-67
2022/12/15 08:26:36;;;;;;;25.87;14.80;;;0.10;65.50;;;;;;5114512;28;20024;-68
2022/12/15 08:29:04;;;;;;;25.43;14.70;;;0.10;65.50;;;;;;5113014;28;20090;-68
2022/12/15 08:31:32;;;;;;;27.07;16.10;;;0.10;65.40;;;;;;5112386;28;20362;-67
2022/12/15 08:33:58;;;;;;;24.73;14.40;;;0.20;65.40;;;;;;5111677;28;20027;-67
2022/12/15 08:36:24;;;;;;;25.10;14.57;;;0.30;65.40;;;;;;5112811;28;20032;-67
2022/12/15 08:38:50;;;;;;;24.17;13.70;;;0.30;65.30;;;;;;5111568;28;20046;-66
2022/12/15 08:41:22;;;;;;;23.93;13.23;;;0.40;65.20;;;;;;5114252;28;20359;-66
2022/12/15 08:43:49;;;;;;;20.60;12.53;;;0.50;65.80;;;;;;5112176;28;20031;-66
2022/12/15 08:46:16;;;;;;;21.43;12.63;;;0.50;65.00;;;;;;5109950;28;20031;-66
2022/12/15 08:48:42;;;;;;;21.73;12.40;;;0.60;65.00;;;;;;5110210;28;20078;-67
2022/12/15 08:51:08;;;;;;;19.53;12.77;;;0.60;64.80;;;;;;5112708;28;20116;-68
2022/12/15 08:53:34;;;;;;;25.50;13.00;;;0.70;64.90;;;;;;5113056;28;20063;-67
2022/12/15 08:56:14;;;;;;;23.20;13.20;;;0.70;64.80;;;;;;5110979;28;20077;-68
2022/12/15 08:58:41;;;;;;;23.00;14.17;;;0.80;64.90;;;;;;5112502;28;20032;-68
2022/12/15 09:01:21;;;;;;;21.13;12.57;;;0.80;64.80;;;;;;5113894;28;20035;-68
2022/12/15 09:03:48;;;;;;;22.57;12.93;;;0.80;64.70;;;;;;5111788;28;20060;-67
2022/12/15 09:06:17;;;;;;;20.70;12.30;;;0.90;64.70;;;;;;5112998;28;20363;-67
2022/12/15 09:08:43;;;;;;;24.27;13.23;;;0.90;64.60;;;;;;5117274;28;20077;-67
2022/12/15 09:11:09;;;;;;;22.90;13.70;;;1.00;64.60;;;;;;5117218;28;20034;-68
2022/12/15 09:13:35;;;;;;;23.13;14.10;;;1.00;64.50;;;;;;5118188;28;20059;-67
2022/12/15 09:16:07;;;;;;;25.07;13.97;;;1.10;64.50;;;;;;5118333;28;20031;-67
2022/12/15 09:18:33;;;;;;;;;;;1.20;64.40;;;;;;5118268;28;20073;-67
2022/12/15 09:21:06;;;;;;;23.23;12.63;;;1.20;64.30;;;;;;5117782;28;19907;-67
2022/12/15 09:23:32;;;;;;;24.23;13.93;;;1.20;64.20;;;;;;5116603;28;20027;-67
2022/12/15 09:26:11;;;;;;;20.97;13.07;;;1.20;64.20;;;;;;5117550;28;20146;-67
2022/12/15 09:28:37;;;;;;;22.73;14.40;;;1.30;64.20;;;;;;5103564;28;20031;-67
2022/12/15 09:31:15;;;;;;;23.93;14.87;;;1.20;64.20;;;;;;5115476;27;20024;-68
2022/12/15 09:33:43;;;;;;;28.00;14.57;;;1.20;64.20;;;;;;5116847;28;20035;-67
2022/12/15 09:36:10;;;;;;;22.73;14.33;;;1.20;64.30;;;;;;5117098;28;20063;-68
2022/12/15 09:38:37;;;;;;;24.90;13.60;;;1.20;64.30;;;;;;5116351;28;20031;-68
2022/12/15 09:41:11;;;;;;;21.87;13.57;;;1.30;64.40;;;;;;5121948;27;20035;-68
2022/12/15 09:43:59;;;;;;;26.83;14.87;;;1.30;64.50;;;;;;5116958;28;20028;-68
2022/12/15 09:46:55;;;;;;;24.17;14.60;;;1.20;64.50;;;;;;5115934;28;20032;-68
2022/12/15 09:49:24;;;;;;;22.27;14.07;;;1.30;64.50;;;;;;5099426;28;20125;-68
2022/12/15 09:52:00;;;;;;;25.23;15.40;;;1.20;64.50;;;;;;5117233;28;20016;-68
2022/12/15 09:54:31;;;;;;;28.97;14.47;;;1.30;64.60;;;;;;5097997;28;20035;-67
2022/12/15 09:56:59;;;;;;;23.60;14.27;;;1.30;64.60;;;;;;5116672;28;20023;-67
2022/12/15 09:59:33;;;;;;;25.13;14.40;;;1.40;64.60;;;;;;5117106;28;20043;-67
2022/12/15 10:02:16;;;;;;;27.23;15.60;;;1.50;64.50;;;;;;5116985;28;20042;-68
2022/12/15 10:04:56;;;;;;;24.27;14.67;;;1.70;64.40;;;;;;5116701;28;20092;-67
2022/12/15 10:07:33;;;;;;;23.87;13.60;;;1.90;64.10;;;;;;5117343;27;20046;-67
2022/12/15 10:10:16;;;;;;;24.83;15.37;;;2.10;63.70;;;;;;5116122;28;20069;-68
2022/12/15 10:12:43;;;;;;;23.53;14.23;;;2.40;63.30;;;;;;5115292;28;20031;-67
2022/12/15 10:15:24;;;;;;;23.10;15.37;;;2.60;62.90;;;;;;5115927;28;20036;-68
2022/12/15 10:18:35;;;;;;;24.07;15.17;;;2.80;62.50;;;;;;5116057;28;20119;-68
2022/12/15 10:21:01;;;;;;;25.43;14.93;;;3.00;62.20;;;;;;5077344;28;20048;-68
2022/12/15 10:23:27;;;;;;;25.27;14.80;;;3.20;61.90;;;;;;5115661;28;20112;-67
2022/12/15 10:26:21;;;;;;;26.43;15.57;;;3.30;61.70;;;;;;5115804;28;20048;-67
2022/12/15 10:29:11;;;;;;;25.50;16.13;;;3.50;61.50;;;;;;5116909;28;20024;-67
2022/12/15 10:31:50;;;;;;;22.87;14.57;;;3.60;61.40;;;;;;5115941;28;20043;-68
2022/12/15 10:34:29;;;;;;;25.97;15.53;;;3.70;61.20;;;;;;5116559;28;20027;-67
2022/12/15 10:36:55;;;;;;;24.80;15.43;;;3.80;61.10;;;;;;5116626;28;20078;-67
2022/12/15 10:39:22;;;;;;;27.03;15.67;;;3.90;61.00;;;;;;5117536;27;20032;-67
2022/12/15 10:42:10;;;;;;;27.27;16.50;;;4.00;60.90;;;;;;5129868;27;20039;-67
2022/12/15 10:44:37;;;;;;;25.07;15.23;;;4.10;60.80;;;;;;5116449;28;20325;-67
2022/12/15 10:47:17;;;;;;;27.87;17.23;;;4.10;60.80;;;;;;5115187;28;20019;-67
2022/12/15 10:49:43;;;;;;;24.90;15.90;;;4.10;60.80;;;;;;5098556;28;20019;-67
2022/12/15 10:52:36;;;;;;;25.57;16.00;;;4.20;60.80;;;;;;5115214;28;20440;-67
2022/12/15 10:55:34;;;;;;;24.87;14.30;;;4.20;60.70;;;;;;5096961;28;20016;-67
2022/12/15 10:58:02;;;;;;;26.20;15.10;;;4.20;60.70;;;;;;5114537;28;20061;-67
2022/12/15 11:00:30;;;;;;;25.63;15.13;;;4.20;60.70;;;;;;5114631;28;20099;-66
2022/12/15 11:02:57;;;;;;;27.47;16.73;;;4.30;60.80;;;;;;5114668;28;20380;-67
2022/12/15 11:05:23;;;;;;;28.00;15.73;;;4.30;60.80;;;;;;5109666;28;20437;-68
2022/12/15 11:08:13;;;;;;;25.60;15.67;;;4.40;60.80;;;;;;5111604;28;20154;-66
2022/12/15 11:13:38;;;;;;;23.27;14.47;;;4.40;60.80;;;;;;5111004;27;20036;-66
2022/12/15 11:16:15;;;;;;;23.10;15.47;;;4.40;60.90;;;;;;5109717;28;20515;-67
2022/12/15 11:18:44;;;;;;;24.40;14.97;;;4.40;61.00;;;;;;5101604;28;20052;-67
2022/12/15 11:21:23;;;;;;;23.60;14.30;;;4.30;61.10;;;;;;5099410;28;20051;-67
2022/12/15 11:24:07;;;;;;;22.40;14.70;;;4.30;61.30;;;;;;5104395;28;20027;-68
2022/12/15 11:27:18;;;;;;;24.43;15.10;;;4.20;61.50;;;;;;5108910;28;20042;-68
2022/12/15 11:30:02;;;;;;;22.13;13.75;;;4.10;61.70;;;;;;5030519;28;20115;-68
2022/12/15 11:32:33;;;;;;;25.37;14.77;;;4.00;61.90;;;;;;5032723;28;20443;-67
2022/12/15 11:34:59;;;;;;;26.97;14.73;;;3.90;62.20;;;;;;5032214;28;21655;-67
2022/12/15 11:37:37;;;;;;;22.17;13.90;;;3.90;62.40;;;;;;5032332;28;20287;-67
2022/12/15 11:40:22;;;;;;;22.13;14.83;;;3.90;62.60;;;;;;5033263;28;20077;-67
2022/12/15 11:43:05;;;;;;;23.23;14.03;;;3.80;62.70;;;;;;5031644;28;20039;-68
2022/12/15 11:45:54;;;;;;;25.53;15.03;;;3.80;62.90;;;;;;5033195;28;20124;-66
2022/12/15 11:48:26;;;;;;;26.40;16.63;;;3.70;63.10;;;;;;5033227;28;20049;-67
2022/12/15 11:50:54;;;;;;;;;;;3.70;63.20;;;;;;5015834;28;20041;-69
2022/12/15 11:53:34;;;;;;;26.03;14.37;;;3.70;63.30;;;;;;5028978;28;19919;-66
2022/12/15 11:56:22;;;;;;;24.10;14.77;;;3.60;63.30;;;;;;5036689;28;20537;-67
2022/12/15 11:59:21;;;;;;;27.63;16.27;;;3.60;63.50;;;;;;5030876;28;20044;-67
2022/12/15 12:02:06;;;;;;;24.00;15.43;;;3.50;63.60;;;;;;5026860;28;20080;-67
2022/12/15 12:05:04;;;;;;;24.17;15.03;;;3.50;63.80;;;;;;5027073;28;20074;-67
2022/12/15 12:08:06;;;;;;;25.60;15.40;;;3.50;64.00;;;;;;5109831;28;20042;-66
2022/12/15 12:10:47;;;;;;;26.77;16.13;;;3.50;64.10;;;;;;5051837;28;20047;-66
2022/12/15 12:13:28;;;;;;;22.83;14.73;;;3.50;64.20;;;;;;5101268;28;20032;-67
2022/12/15 12:16:09;;;;;;;22.40;14.90;;;3.50;64.30;;;;;;5107338;28;20020;-66
2022/12/15 12:18:53;;;;;;;25.08;14.77;;;3.50;64.30;;;;;;5094268;28;20047;-67
2022/12/15 12:21:25;;;;;;;26.30;15.80;;;3.50;64.40;;;;;;5108131;28;20047;-69
2022/12/15 12:23:57;;;;;;;23.75;15.27;;;3.50;64.40;;;;;;5097548;28;20031;-67
2022/12/15 12:26:36;;;;;;;25.73;15.50;;;3.60;64.50;;;;;;5094794;28;20024;-68
2022/12/15 12:29:13;;;;;;;23.53;15.07;;;3.60;64.60;;;;;;5108846;28;20020;-67
2022/12/15 12:31:57;;;;;;;25.30;13.93;;;3.50;64.70;;;;;;5108290;28;20472;-67
2022/12/15 12:34:49;;;;;;;23.17;15.60;;;3.50;64.80;;;;;;5094599;28;20032;-67
2022/12/15 12:37:24;;;;;;;21.98;13.90;;;3.50;64.90;;;;;;5094802;28;20036;-67
2022/12/15 12:39:52;;;;;;;25.00;15.23;;;3.40;65.00;;;;;;5093698;28;20040;-67
2022/12/15 12:42:53;;;;;;;24.90;15.77;;;3.50;65.20;;;;;;5101295;28;20036;-67
2022/12/15 12:45:22;;;;;;;25.40;14.90;;;3.50;65.30;;;;;;5106921;28;20027;-67
2022/12/15 12:47:51;;;;;;;23.83;15.13;;;3.50;65.30;;;;;;5107820;28;20108;-67
2022/12/15 12:50:23;;;;;;;22.20;14.40;;;3.40;65.30;;;;;;5097728;28;20032;-67
2022/12/15 12:53:00;;;;;;;24.08;15.32;;;3.50;65.40;;;;;;5098386;28;20031;-67
2022/12/15 12:55:26;;;;;;;25.03;15.60;;;3.50;65.40;;;;;;5117320;27;20433;-67
2022/12/15 12:57:53;;;;;;;25.70;15.43;;;3.50;65.40;;;;;;5111716;27;20032;-67
2022/12/15 13:00:27;;;;;;;25.10;15.67;;;3.50;65.40;;;;;;5098300;28;20036;-67
2022/12/15 13:03:16;;;;;;;27.63;16.37;;;3.50;65.50;;;;;;5097106;28;20039;-67
2022/12/15 13:05:43;;;;;;;24.83;16.03;;;3.50;65.60;;;;;;5097202;28;20043;-67
2022/12/15 13:08:09;;;;;;;31.07;18.30;;;3.50;65.60;;;;;;5097235;28;20392;-67
2022/12/15 13:10:37;;;;;;;41.23;23.40;;;3.50;65.60;;;;;;5109529;28;20024;-67
2022/12/15 13:13:28;;;;;;;45.77;20.67;;;3.50;65.60;;;;;;5097135;28;20034;-67
2022/12/15 13:16:07;;;;;;;32.00;18.53;;;3.60;65.60;;;;;;5099026;28;20119;-67
2022/12/15 13:18:58;;;;;;;33.93;19.33;;;3.60;65.50;;;;;;5105903;28;20180;-66
2022/12/15 13:21:42;;;;;;;34.23;18.47;;;3.70;65.40;;;;;;5097784;28;20047;-67
2022/12/15 13:24:18;;;;;;;32.47;17.43;;;3.70;65.40;;;;;;5101484;27;20047;-67
2022/12/15 13:26:44;;;;;;;26.80;16.37;;;3.70;65.50;;;;;;5121791;27;20031;-67
2022/12/15 13:29:15;;;;;;;28.17;16.73;;;3.70;65.50;;;;;;5102785;28;20173;-67
2022/12/15 13:31:47;;;;;;;23.90;15.07;;;3.70;65.60;;;;;;5097157;28;20035;-68
2022/12/15 13:34:19;;;;;;;25.47;17.17;;;3.70;65.60;;;;;;5096988;28;20484;-67
2022/12/15 13:36:48;;;;;;;24.77;15.80;;;3.70;65.60;;;;;;5097614;28;20052;-67
2022/12/15 13:39:16;;;;;;;27.53;17.70;;;3.70;65.70;;;;;;5096513;28;20111;-68
2022/12/15 13:41:53;;;;;;;26.33;16.07;;;3.70;65.80;;;;;;5106784;27;20019;-67
2022/12/15 13:44:36;;;;;;;27.47;16.43;;;3.70;65.80;;;;;;5122683;27;20389;-67
2022/12/15 13:47:16;;;;;;;26.80;16.87;;;3.60;65.80;;;;;;5096812;28;20024;-67
2022/12/15 13:49:51;;;;;;;26.63;16.60;;;3.60;65.90;;;;;;5093498;28;20123;-67
2022/12/15 13:52:27;;;;;;;27.70;16.97;;;3.60;65.90;;;;;;5096849;28;20036;-67
2022/12/15 13:54:57;;;;;;;27.07;17.30;;;3.60;66.00;;;;;;5097854;28;20433;-67
2022/12/15 13:57:24;;;;;;;26.27;18.30;;;3.60;66.70;;;;;;5117651;28;20471;-67
2022/12/15 13:59:56;;;;;;;26.83;16.70;;;3.60;66.10;;;;;;5097352;28;20107;-67
2022/12/15 14:02:23;;;;;;;24.87;16.67;;;3.60;66.20;;;;;;5118008;27;20119;-67
2022/12/15 14:05:25;;;;;;;25.87;17.67;;;3.60;66.20;;;;;;5100349;27;20028;-67
2022/12/15 14:07:55;;;;;;;27.90;18.45;;;3.50;66.30;;;;;;5110886;28;20039;-67
2022/12/15 14:10:42;;;;;;;25.00;16.30;;;3.50;66.30;;;;;;5101844;28;20024;-67
2022/12/15 14:13:14;;;;;;;26.30;17.87;;;3.50;66.30;;;;;;5089871;28;20044;-67
2022/12/15 14:15:45;;;;;;;29.63;17.97;;;3.50;66.40;;;;;;5096023;28;20036;-67
2022/12/15 14:18:23;;;;;;;28.03;16.80;;;3.50;66.40;;;;;;5096643;28;20066;-67
2022/12/15 14:20:48;;;;;;;32.47;17.50;;;3.50;66.50;;;;;;5110074;28;20407;-67
2022/12/15 14:23:23;;;;;;;31.43;17.57;;;3.50;66.50;;;;;;5086477;28;20035;-67
2022/12/15 14:25:56;;;;;;;26.57;17.67;;;3.50;66.60;;;;;;5105415;28;20047;-67
2022/12/15 14:28:29;;;;;;;27.20;17.70;;;3.50;66.60;;;;;;5096049;28;20024;-67
2022/12/15 14:31:04;;;;;;;28.27;18.03;;;3.50;66.60;;;;;;5095667;28;20020;-67
2022/12/15 14:33:34;;;;;;;25.93;17.30;;;3.40;66.60;;;;;;5109952;28;20123;-67
2022/12/15 14:36:00;;;;;;;29.90;18.33;;;3.40;66.70;;;;;;5096952;28;20043;-67
2022/12/15 14:38:43;;;;;;;25.43;16.63;;;3.40;66.80;;;;;;5096631;28;20470;-66
2022/12/15 14:41:19;;;;;;;30.63;17.77;;;3.40;66.80;;;;;;5096641;28;20478;-67
2022/12/15 14:43:44;;;;;;;26.30;17.27;;;3.40;66.90;;;;;;5110263;28;20035;-67
2022/12/15 14:46:15;;;;;;;29.17;18.97;;;3.40;66.90;;;;;;5110645;27;20091;-66
2022/12/15 14:49:10;;;;;;;27.83;17.33;;;3.40;66.90;;;;;;5105161;28;20016;-67
2022/12/15 14:51:47;;;;;;;28.43;17.97;;;3.40;67.00;;;;;;5105002;28;20051;-67
2022/12/15 14:54:29;;;;;;;29.73;17.97;;;3.40;66.90;;;;;;5100791;28;20020;-67
2022/12/15 14:57:15;;;;;;;29.02;18.95;;;3.40;67.00;;;;;;5102009;28;20421;-67
2022/12/15 14:59:43;;;;;;;29.07;18.60;;;3.40;67.00;;;;;;5092994;28;20039;-67
2022/12/15 15:02:15;;;;;;;26.13;18.30;;;3.40;67.00;;;;;;5108335;28;20409;-67
2022/12/15 15:04:41;;;;;;;27.30;17.08;;;3.40;67.10;;;;;;5094871;28;20081;-67
2022/12/15 15:07:17;;;;;;;26.47;16.50;;;3.40;67.10;;;;;;5117173;27;20027;-67
2022/12/15 15:09:44;;;;;;;26.93;16.50;;;3.40;67.20;;;;;;5120154;27;20020;-66
2022/12/15 15:12:14;;;;;;;29.03;17.70;;;3.40;67.20;;;;;;5115066;28;20038;-66
2022/12/15 15:14:45;;;;;;;29.33;18.03;;;3.40;67.20;;;;;;5097172;28;20036;-66
2022/12/15 15:17:48;;;;;;;26.60;17.73;;;3.40;67.20;;;;;;5120036;27;20054;-67
2022/12/15 15:20:16;;;;;;;29.00;18.53;;;3.40;67.30;;;;;;5102059;28;20473;-66
2022/12/15 15:22:45;;;;;;;29.50;18.03;;;3.40;67.30;;;;;;5121285;27;20039;-67
2022/12/15 15:25:33;;;;;;;28.93;18.07;;;3.40;67.40;;;;;;5103587;28;20036;-67
2022/12/15 15:28:17;;;;;;;24.47;16.77;;;3.30;67.40;;;;;;5111459;28;20020;-67
2022/12/15 15:30:56;;;;;;;26.27;16.80;;;3.30;67.40;;;;;;5095931;28;20081;-67